createdAt,value
2023-02-06T00:01:15.253Z,2.57
2023-02-06T00:03:41.964Z,2.59
2023-02-06T00:06:09.190Z,2.55
2023-02-06T00:08:36.048Z,2.48
2023-02-06T00:11:08.176Z,2.52
2023-02-06T00:13:36.503Z,2.46
2023-02-06T00:16:04.422Z,2.43
2023-02-06T00:18:32.183Z,2.39
2023-02-06T00:20:59.161Z,2.42
2023-02-06T00:23:26.425Z,2.35
2023-02-06T00:25:53.179Z,2.33
2023-02-06T00:28:20.074Z,2.29
2023-02-06T00:30:48.330Z,2.21
2023-02-06T00:33:15.520Z,2.18
2023-02-06T00:35:42.644Z,2.11
2023-02-06T00:38:13.015Z,2.11
2023-02-06T00:40:39.737Z,2.10
2023-02-06T00:43:06.658Z,2.12
2023-02-06T00:45:34.277Z,2.15
2023-02-06T00:48:01.686Z,2.13
2023-02-06T00:50:29.672Z,2.18
2023-02-06T00:52:56.657Z,2.15
2023-02-06T00:55:23.653Z,2.13
2023-02-06T00:57:50.576Z,2.15
2023-02-06T01:00:17.736Z,2.12
2023-02-06T01:02:44.999Z,2.11
2023-02-06T01:05:11.909Z,2.11
2023-02-06T01:07:43.077Z,2.13
2023-02-06T01:10:14.112Z,2.08
2023-02-06T01:12:41.726Z,2.05
2023-02-06T01:15:11.911Z,2.01
2023-02-06T01:17:40.382Z,2.00
2023-02-06T01:20:11.273Z,2.00
2023-02-06T01:22:38.858Z,1.92
2023-02-06T01:25:06.621Z,1.89
2023-02-06T01:27:37.445Z,1.82
2023-02-06T01:30:06.927Z,1.85
2023-02-06T01:32:40.845Z,1.77
2023-02-06T01:35:12.498Z,1.73
2023-02-06T01:37:40.535Z,1.72
2023-02-06T01:40:14.830Z,1.71
2023-02-06T01:42:42.364Z,1.66
2023-02-06T01:45:43.332Z,1.60
2023-02-06T01:48:16.809Z,1.58
2023-02-06T01:50:49.640Z,1.56
2023-02-06T01:53:18.380Z,1.57
2023-02-06T01:55:46.868Z,1.58
2023-02-06T01:58:26.452Z,1.60
2023-02-06T02:00:53.833Z,1.56
2023-02-06T02:03:20.720Z,1.57
2023-02-06T02:05:48.303Z,1.54
2023-02-06T02:08:24.960Z,1.49
2023-02-06T02:10:51.891Z,1.42
2023-02-06T02:13:18.671Z,1.44
2023-02-06T02:16:15.778Z,1.36
2023-02-06T02:19:04.053Z,1.35
2023-02-06T02:21:49.608Z,1.38
2023-02-06T02:24:41.389Z,1.35
2023-02-06T02:27:38.348Z,1.32
2023-02-06T02:30:51.754Z,1.28
2023-02-06T02:33:55.344Z,1.19
2023-02-06T02:36:39.492Z,1.18
2023-02-06T02:39:40.426Z,1.20
2023-02-06T02:42:45.669Z,1.25
2023-02-06T02:45:16.900Z,1.24
2023-02-06T02:48:10.538Z,1.23
2023-02-06T02:50:42.466Z,1.29
2023-02-06T02:53:11.381Z,1.27
2023-02-06T02:55:38.449Z,1.27
2023-02-06T02:58:19.202Z,1.29
2023-02-06T03:00:54.773Z,1.27
2023-02-06T03:03:28.472Z,1.22
2023-02-06T03:06:44.563Z,1.27
2023-02-06T03:09:26.056Z,1.23
2023-02-06T03:12:29.603Z,1.20
2023-02-06T03:15:04.674Z,1.21
2023-02-06T03:17:43.983Z,1.19
2023-02-06T03:20:12.019Z,1.17
2023-02-06T03:22:41.097Z,1.12
2023-02-06T03:25:20.780Z,1.08
2023-02-06T03:27:50.447Z,1.14
2023-02-06T03:30:19.949Z,1.21
2023-02-06T03:32:50.432Z,1.18
2023-02-06T03:35:22.802Z,1.17
2023-02-06T03:37:50.335Z,1.19
2023-02-06T03:40:18.484Z,1.16
2023-02-06T03:42:56.900Z,1.02
2023-02-06T03:45:33.239Z,0.98
2023-02-06T03:48:14.755Z,0.93
2023-02-06T03:50:44.510Z,0.87
2023-02-06T03:53:13.245Z,0.96
2023-02-06T03:55:41.293Z,0.98
2023-02-06T03:58:12.561Z,0.99
2023-02-06T04:00:42.334Z,0.93
2023-02-06T04:03:10.933Z,0.95
2023-02-06T04:05:38.318Z,0.90
2023-02-06T04:08:05.942Z,0.95
2023-02-06T04:10:33.566Z,0.92
2023-02-06T04:13:00.265Z,0.92
2023-02-06T04:15:27.024Z,0.89
2023-02-06T04:18:00.359Z,0.81
2023-02-06T04:20:29.747Z,0.74
2023-02-06T04:22:57.951Z,0.81
2023-02-06T04:25:25.211Z,0.83
2023-02-06T04:27:52.126Z,0.80
2023-02-06T04:30:19.367Z,0.81
2023-02-06T04:32:46.209Z,0.66
2023-02-06T04:35:12.980Z,0.63
2023-02-06T04:37:39.908Z,0.57
2023-02-06T04:40:10.669Z,0.46
2023-02-06T04:42:37.989Z,0.48
2023-02-06T04:45:05.641Z,0.67
2023-02-06T04:47:32.471Z,0.70
2023-02-06T04:49:59.481Z,0.71
2023-02-06T04:52:26.319Z,0.73
2023-02-06T04:54:53.333Z,0.79
2023-02-06T04:57:20.803Z,0.77
2023-02-06T04:59:47.562Z,0.75
2023-02-06T05:02:14.285Z,0.71
2023-02-06T05:04:41.144Z,0.68
2023-02-06T05:07:07.909Z,0.74
2023-02-06T05:09:34.734Z,0.73
2023-02-06T05:12:01.694Z,0.69
2023-02-06T05:14:28.753Z,0.73
2023-02-06T05:16:55.466Z,0.76
2023-02-06T05:19:22.363Z,0.73
2023-02-06T05:21:49.211Z,0.76
2023-02-06T05:24:15.914Z,0.77
2023-02-06T05:26:42.739Z,0.73
2023-02-06T05:29:09.840Z,0.78
2023-02-06T05:31:36.769Z,0.81
2023-02-06T05:34:03.650Z,0.87
2023-02-06T05:36:30.452Z,0.88
2023-02-06T05:38:57.231Z,0.92
2023-02-06T05:41:23.975Z,0.91
2023-02-06T05:43:50.818Z,0.96
2023-02-06T05:46:17.644Z,0.97
2023-02-06T05:48:44.408Z,1.00
2023-02-06T05:51:11.346Z,0.97
2023-02-06T05:53:38.082Z,0.92
2023-02-06T05:56:05.479Z,1.02
2023-02-06T05:58:32.432Z,1.01
2023-02-06T06:00:59.707Z,1.01
2023-02-06T06:03:28.564Z,0.96
2023-02-06T06:05:55.524Z,1.02
2023-02-06T06:08:22.396Z,0.93
2023-02-06T06:10:52.685Z,0.98
2023-02-06T06:13:19.667Z,1.05
2023-02-06T06:15:50.225Z,1.04
2023-02-06T06:18:17.143Z,1.03
2023-02-06T06:20:43.884Z,1.00
2023-02-06T06:23:10.866Z,1.02
2023-02-06T06:25:37.805Z,1.02
2023-02-06T06:28:05.242Z,0.98
2023-02-06T06:30:34.288Z,1.06
2023-02-06T06:33:02.106Z,1.08
2023-02-06T06:35:28.930Z,1.08
2023-02-06T06:38:04.154Z,1.04
2023-02-06T06:40:30.978Z,0.96
2023-02-06T06:42:57.717Z,1.01
2023-02-06T06:45:24.541Z,1.04
2023-02-06T06:47:51.384Z,1.07
2023-02-06T06:50:18.476Z,1.06
2023-02-06T06:52:45.261Z,1.04
2023-02-06T06:55:17.472Z,1.06
2023-02-06T06:57:46.791Z,1.01
2023-02-06T07:00:33.563Z,1.02
2023-02-06T07:03:00.357Z,1.07
2023-02-06T07:05:27.256Z,0.95
2023-02-06T07:07:54.352Z,0.94
2023-02-06T07:10:21.198Z,0.88
2023-02-06T07:12:48.332Z,0.90
2023-02-06T07:15:15.146Z,0.95
2023-02-06T07:17:41.934Z,0.83
2023-02-06T07:20:10.023Z,0.80
2023-02-06T07:22:36.809Z,0.90
2023-02-06T07:25:04.515Z,0.91
2023-02-06T07:27:31.448Z,0.94
2023-02-06T07:29:59.678Z,0.90
2023-02-06T07:32:27.206Z,0.99
2023-02-06T07:34:53.999Z,1.00
2023-02-06T07:37:20.948Z,0.92
2023-02-06T07:39:47.732Z,0.88
2023-02-06T07:42:14.687Z,0.97
2023-02-06T07:44:52.807Z,1.03
2023-02-06T07:47:19.803Z,1.01
2023-02-06T07:49:46.912Z,1.06
2023-02-06T07:52:15.721Z,1.14
2023-02-06T07:54:42.448Z,1.07
2023-02-06T07:57:09.192Z,1.15
2023-02-06T07:59:35.981Z,1.11
2023-02-06T08:02:02.813Z,1.07
2023-02-06T08:04:35.126Z,1.00
2023-02-06T08:07:04.361Z,1.10
2023-02-06T08:09:31.931Z,1.18
2023-02-06T08:11:59.094Z,1.14
2023-02-06T08:14:26.173Z,1.12
2023-02-06T08:16:53.042Z,1.15
2023-02-06T08:19:19.824Z,1.22
2023-02-06T08:21:46.663Z,1.25
2023-02-06T08:24:13.404Z,1.18
2023-02-06T08:26:40.194Z,1.27
2023-02-06T08:29:08.462Z,1.34
2023-02-06T08:31:39.545Z,1.31
2023-02-06T08:34:09.902Z,1.36
2023-02-06T08:36:36.846Z,1.42
2023-02-06T08:39:05.392Z,1.40
2023-02-06T08:41:38.050Z,1.31
2023-02-06T08:44:14.586Z,1.47
2023-02-06T08:46:41.791Z,1.42
2023-02-06T08:49:17.310Z,1.41
2023-02-06T08:51:45.276Z,1.47
2023-02-06T08:54:17.961Z,1.49
2023-02-06T08:56:45.520Z,1.50
2023-02-06T08:59:14.643Z,1.59
2023-02-06T09:01:41.992Z,1.52
2023-02-06T09:04:10.730Z,1.49
2023-02-06T09:06:41.478Z,1.65
2023-02-06T09:09:10.478Z,1.53
2023-02-06T09:11:38.355Z,1.48
2023-02-06T09:14:11.291Z,1.38
2023-02-06T09:16:38.156Z,1.62
2023-02-06T09:19:06.403Z,1.75
2023-02-06T09:21:35.452Z,1.81
2023-02-06T09:24:22.968Z,1.85
2023-02-06T09:26:59.441Z,1.98
2023-02-06T09:29:29.369Z,1.90
2023-02-06T09:31:59.748Z,2.03
2023-02-06T09:34:27.533Z,2.05
2023-02-06T09:37:04.762Z,2.05
2023-02-06T09:39:33.027Z,2.16
2023-02-06T09:42:09.022Z,2.15
2023-02-06T09:45:43.978Z,2.14
2023-02-06T09:48:22.242Z,2.18
2023-02-06T09:51:30.296Z,2.16
2023-02-06T09:55:09.786Z,2.15
2023-02-06T09:57:51.178Z,2.22
2023-02-06T10:00:43.391Z,2.33
2023-02-06T10:03:45.027Z,2.36
2023-02-06T10:06:25.387Z,2.36
2023-02-06T10:09:10.192Z,2.45
2023-02-06T10:11:48.175Z,2.38
2023-02-06T10:14:28.464Z,2.40
2023-02-06T10:17:06.117Z,2.46
2023-02-06T10:19:50.262Z,2.35
2023-02-06T10:23:08.101Z,2.36
2023-02-06T10:25:43.914Z,2.52
2023-02-06T10:28:19.799Z,2.55
2023-02-06T10:30:55.368Z,2.53
2023-02-06T10:33:34.225Z,2.59
2023-02-06T10:36:36.546Z,2.57
2023-02-06T10:39:23.273Z,2.70
2023-02-06T10:42:15.796Z,2.74
2023-02-06T10:44:54.099Z,2.69
2023-02-06T10:47:56.889Z,2.74
2023-02-06T10:50:53.678Z,2.74
2023-02-06T10:53:30.782Z,2.85
2023-02-06T10:56:04.948Z,2.98
2023-02-06T10:58:37.384Z,2.98
2023-02-06T11:01:20.215Z,3.02
2023-02-06T11:04:25.003Z,3.28
2023-02-06T11:06:58.139Z,3.21
2023-02-06T11:09:25.059Z,3.15
2023-02-06T11:11:54.596Z,3.06
2023-02-06T11:14:29.041Z,2.92
2023-02-06T11:16:59.242Z,3.31
2023-02-06T11:19:44.210Z,3.68
2023-02-06T11:22:15.829Z,3.53
2023-02-06T11:25:38.495Z,3.52
2023-02-06T11:28:15.579Z,3.48
2023-02-06T11:30:56.637Z,3.75
2023-02-06T11:33:45.155Z,3.53
2023-02-06T11:36:38.708Z,3.73
2023-02-06T11:39:22.978Z,3.78
2023-02-06T11:42:03.090Z,3.99
2023-02-06T11:44:40.812Z,3.87
2023-02-06T11:47:36.583Z,3.93
2023-02-06T11:50:13.319Z,3.99
2023-02-06T11:52:48.787Z,4.13
2023-02-06T11:55:31.721Z,4.10
2023-02-06T11:58:04.798Z,3.89
2023-02-06T12:00:32.724Z,3.95
2023-02-06T12:02:59.433Z,3.89
2023-02-06T12:05:33.097Z,4.28
2023-02-06T12:08:02.997Z,4.26
2023-02-06T12:10:35.997Z,4.25
2023-02-06T12:13:08.586Z,4.05
2023-02-06T12:15:47.025Z,3.85
2023-02-06T12:18:44.560Z,4.53
2023-02-06T12:21:54.582Z,4.45
2023-02-06T12:24:35.023Z,4.48
2023-02-06T12:27:21.265Z,4.53
2023-02-06T12:30:35.162Z,4.72
2023-02-06T12:33:16.609Z,4.34
2023-02-06T12:35:53.909Z,3.95
2023-02-06T12:38:35.807Z,3.90
2023-02-06T12:41:26.007Z,4.05
2023-02-06T12:44:05.282Z,4.25
2023-02-06T12:46:32.750Z,4.15
2023-02-06T12:49:20.831Z,4.27
2023-02-06T12:52:04.837Z,4.43
2023-02-06T12:54:48.288Z,4.54
2023-02-06T12:57:24.675Z,4.36
2023-02-06T13:00:28.026Z,4.52
2023-02-06T13:03:29.011Z,4.57
2023-02-06T13:09:05.500Z,4.44
2023-02-06T13:11:42.532Z,4.52
2023-02-06T13:14:27.933Z,4.36
2023-02-06T13:16:57.569Z,4.50
2023-02-06T13:19:36.522Z,4.39
2023-02-06T13:22:09.310Z,4.32
2023-02-06T13:24:37.620Z,4.13
2023-02-06T13:27:07.089Z,3.87
2023-02-06T13:29:48.078Z,3.88
2023-02-06T13:32:17.460Z,4.07
2023-02-06T13:34:46.516Z,4.26
2023-02-06T13:37:44.238Z,4.28
2023-02-06T13:40:24.422Z,4.42
2023-02-06T13:43:17.840Z,4.53
2023-02-06T13:45:57.664Z,4.56
2023-02-06T13:49:05.355Z,4.67
2023-02-06T13:51:50.409Z,4.72
2023-02-06T13:54:51.876Z,4.70
2023-02-06T13:58:01.807Z,4.74
2023-02-06T14:00:32.187Z,4.72
2023-02-06T14:03:28.639Z,4.52
2023-02-06T14:06:27.662Z,4.53
2023-02-06T14:09:06.584Z,4.61
2023-02-06T14:12:08.627Z,4.51
2023-02-06T14:15:05.762Z,4.52
2023-02-06T14:17:46.453Z,4.47
2023-02-06T14:20:28.469Z,4.35
2023-02-06T14:23:11.550Z,4.23
2023-02-06T14:26:24.747Z,4.42
2023-02-06T14:29:07.475Z,4.49
2023-02-06T14:31:46.681Z,4.71
2023-02-06T14:34:54.036Z,4.58
2023-02-06T14:41:33.302Z,4.53
2023-02-06T14:44:00.734Z,4.53
2023-02-06T14:46:29.046Z,4.49
2023-02-06T14:48:58.678Z,4.56
2023-02-06T14:51:38.426Z,4.51
2023-02-06T14:54:35.816Z,4.50
2023-02-06T14:57:19.339Z,4.52
2023-02-06T14:59:59.698Z,4.51
2023-02-06T15:02:35.853Z,4.53
2023-02-06T15:05:04.640Z,4.47
2023-02-06T15:07:35.927Z,4.51
2023-02-06T15:10:13.419Z,4.47
2023-02-06T15:12:41.277Z,4.56
2023-02-06T15:15:23.570Z,4.58
2023-02-06T15:18:14.747Z,4.47
2023-02-06T15:20:45.287Z,4.42
2023-02-06T15:23:34.106Z,4.50
2023-02-06T15:26:27.585Z,4.45
2023-02-06T15:29:00.356Z,4.45
2023-02-06T15:31:28.929Z,4.52
2023-02-06T15:34:02.698Z,4.55
2023-02-06T15:36:31.159Z,4.55
2023-02-06T15:39:00.072Z,4.58
2023-02-06T15:41:29.644Z,4.50
2023-02-06T15:44:10.021Z,4.50
2023-02-06T15:46:38.352Z,4.55
2023-02-06T15:49:06.839Z,4.50
2023-02-06T15:51:51.862Z,4.45
2023-02-06T15:54:24.153Z,4.38
2023-02-06T15:56:59.091Z,4.32
2023-02-06T15:59:27.409Z,4.33
2023-02-06T16:01:57.680Z,4.39
2023-02-06T16:04:33.742Z,4.45
2023-02-06T16:07:05.794Z,4.40
2023-02-06T16:09:41.150Z,4.38
2023-02-06T16:12:08.812Z,4.30
2023-02-06T16:14:42.238Z,4.34
2023-02-06T16:17:15.456Z,4.34
2023-02-06T16:19:55.033Z,4.37
2023-02-06T16:22:26.309Z,4.44
2023-02-06T16:25:11.752Z,4.38
2023-02-06T16:27:51.242Z,4.31
2023-02-06T16:30:28.248Z,4.38
2023-02-06T16:32:59.989Z,4.39
2023-02-06T16:35:26.844Z,4.45
2023-02-06T16:37:54.762Z,4.42
2023-02-06T16:40:21.632Z,4.45
2023-02-06T16:42:49.111Z,4.43
2023-02-06T16:45:21.352Z,4.37
2023-02-06T16:47:48.333Z,4.32
2023-02-06T16:50:16.249Z,4.28
2023-02-06T16:52:55.749Z,4.23
2023-02-06T16:55:26.090Z,4.16
2023-02-06T16:57:56.915Z,4.10
2023-02-06T17:00:30.090Z,4.05
2023-02-06T17:02:59.670Z,3.98
2023-02-06T17:05:28.559Z,3.97
2023-02-06T17:07:55.914Z,3.97
2023-02-06T17:10:26.651Z,3.89
2023-02-06T17:12:54.122Z,3.91
2023-02-06T17:15:21.525Z,3.88
2023-02-06T17:17:48.255Z,3.90
2023-02-06T17:20:29.801Z,3.84
2023-02-06T17:22:56.600Z,3.81
2023-02-06T17:25:23.358Z,3.83
2023-02-06T17:27:50.421Z,3.87
2023-02-06T17:30:20.700Z,3.87
2023-02-06T17:32:48.094Z,3.91
2023-02-06T17:35:15.258Z,3.94
2023-02-06T17:37:42.229Z,3.95
2023-02-06T17:40:12.305Z,3.90
2023-02-06T17:42:39.081Z,3.92
2023-02-06T17:45:06.474Z,3.94
2023-02-06T17:47:33.172Z,3.92
2023-02-06T17:49:59.943Z,3.96
2023-02-06T17:52:26.753Z,3.93
2023-02-06T17:54:53.463Z,3.92
2023-02-06T17:57:20.194Z,3.87
2023-02-06T17:59:47.128Z,3.87
2023-02-06T18:02:14.849Z,3.89
2023-02-06T18:04:42.062Z,3.95
2023-02-06T18:07:09.015Z,3.96
2023-02-06T18:09:35.742Z,3.95
2023-02-06T18:12:02.616Z,3.95
2023-02-06T18:14:29.407Z,3.96
2023-02-06T18:16:56.140Z,3.94
2023-02-06T18:19:24.861Z,3.98
2023-02-06T18:21:52.053Z,3.96
2023-02-06T18:24:18.879Z,3.98
2023-02-06T18:26:46.885Z,3.99
2023-02-06T18:29:13.696Z,3.97
2023-02-06T18:31:40.540Z,3.98
2023-02-06T18:34:08.577Z,3.95
2023-02-06T18:36:38.307Z,3.87
2023-02-06T18:39:06.490Z,3.81
2023-02-06T18:41:51.652Z,3.74
2023-02-06T18:44:27.078Z,3.68
2023-02-06T18:46:54.020Z,3.63
2023-02-06T18:49:20.859Z,3.58
2023-02-06T18:51:47.636Z,3.57
2023-02-06T18:54:15.434Z,3.49
2023-02-06T18:56:42.210Z,3.49
2023-02-06T18:59:11.618Z,3.47
2023-02-06T19:01:38.752Z,3.51
2023-02-06T19:04:06.280Z,3.48
2023-02-06T19:06:36.475Z,3.40
2023-02-06T19:09:08.992Z,3.33
2023-02-06T19:11:37.039Z,3.38
2023-02-06T19:14:05.676Z,3.35
2023-02-06T19:16:32.893Z,3.35
2023-02-06T19:19:00.070Z,3.40
2023-02-06T19:21:28.412Z,3.38
2023-02-06T19:23:58.270Z,3.40
2023-02-06T19:26:26.511Z,3.36
2023-02-06T19:28:54.141Z,3.38
2023-02-06T19:31:24.837Z,3.42
2023-02-06T19:33:58.115Z,3.36
2023-02-06T19:36:26.979Z,3.35
2023-02-06T19:38:57.166Z,3.29
2023-02-06T19:41:26.785Z,3.27
2023-02-06T19:43:55.760Z,3.22
2023-02-06T19:46:26.320Z,3.21
2023-02-06T19:48:55.140Z,3.22
2023-02-06T19:51:27.345Z,3.16
2023-02-06T19:53:56.966Z,3.09
2023-02-06T19:56:34.601Z,3.05
2023-02-06T19:59:04.889Z,3.05
2023-02-06T20:01:32.633Z,3.00
2023-02-06T20:04:01.174Z,2.94
2023-02-06T20:06:34.817Z,2.97
2023-02-06T20:09:03.925Z,2.88
2023-02-06T20:11:32.486Z,2.89
2023-02-06T20:13:59.752Z,2.88
2023-02-06T20:16:31.906Z,2.80
2023-02-06T20:18:59.336Z,2.77
2023-02-06T20:21:33.406Z,2.72
2023-02-06T20:24:03.189Z,2.69
2023-02-06T20:26:37.319Z,2.73
2023-02-06T20:29:06.234Z,2.62
2023-02-06T20:31:36.917Z,2.67
2023-02-06T20:34:03.767Z,2.42
2023-02-06T20:36:31.019Z,2.29
2023-02-06T20:39:00.205Z,2.32
2023-02-06T20:41:31.349Z,2.37
2023-02-06T20:44:01.721Z,2.39
2023-02-06T20:46:32.540Z,2.39
2023-02-06T20:49:04.265Z,2.41
2023-02-06T20:51:31.773Z,2.37
2023-02-06T20:53:59.522Z,2.30
2023-02-06T20:56:27.153Z,2.22
2023-02-06T20:58:54.036Z,2.18
2023-02-06T21:01:25.054Z,2.21
2023-02-06T21:03:58.690Z,2.16
2023-02-06T21:06:26.833Z,2.19
2023-02-06T21:08:57.414Z,2.11
2023-02-06T21:11:29.349Z,2.27
2023-02-06T21:13:58.899Z,2.26
2023-02-06T21:16:27.630Z,2.19
2023-02-06T21:18:56.364Z,2.12
2023-02-06T21:21:25.514Z,2.03
2023-02-06T21:23:55.900Z,1.99
2023-02-06T21:26:24.398Z,1.87
2023-02-06T21:28:52.198Z,1.80
2023-02-06T21:31:25.288Z,1.74
2023-02-06T21:33:52.570Z,1.80
2023-02-06T21:36:21.113Z,1.79
2023-02-06T21:38:48.349Z,1.71
2023-02-06T21:41:18.808Z,1.68
2023-02-06T21:43:46.418Z,1.57
2023-02-06T21:46:13.813Z,1.57
2023-02-06T21:48:41.530Z,1.49
2023-02-06T21:51:16.813Z,1.48
2023-02-06T21:53:45.931Z,1.56
2023-02-06T21:56:22.776Z,1.49
2023-02-06T21:58:50.140Z,1.41
2023-02-06T22:01:26.104Z,1.36
2023-02-06T22:03:53.630Z,1.28
2023-02-06T22:06:21.048Z,1.25
2023-02-06T22:08:54.343Z,1.23
2023-02-06T22:11:24.691Z,1.19
2023-02-06T22:13:52.532Z,1.16
2023-02-06T22:16:22.608Z,1.12
2023-02-06T22:18:50.432Z,1.07
2023-02-06T22:21:20.881Z,1.09
2023-02-06T22:23:49.655Z,1.05
2023-02-06T22:26:19.125Z,0.92
2023-02-06T22:28:46.904Z,1.00
2023-02-06T22:31:26.867Z,0.91
2023-02-06T22:33:54.505Z,0.88
2023-02-06T22:36:26.157Z,0.89
2023-02-06T22:38:56.776Z,0.98
2023-02-06T22:41:23.760Z,0.97
2023-02-06T22:43:52.134Z,0.98
2023-02-06T22:46:29.290Z,0.86
2023-02-06T22:48:57.047Z,0.84
2023-02-06T22:51:24.825Z,0.82
2023-02-06T22:53:52.465Z,0.80
2023-02-06T22:56:27.621Z,0.79
2023-02-06T22:59:13.131Z,0.76
2023-02-06T23:01:44.212Z,0.64
2023-02-06T23:04:15.377Z,0.60
2023-02-06T23:06:43.096Z,0.65
2023-02-06T23:09:16.388Z,0.64
2023-02-06T23:11:43.694Z,0.49
2023-02-06T23:14:12.708Z,0.45
2023-02-06T23:16:39.763Z,0.43
2023-02-06T23:19:07.531Z,0.40
2023-02-06T23:21:40.238Z,0.25
2023-02-06T23:24:12.808Z,0.17
2023-02-06T23:26:43.225Z,0.07
2023-02-06T23:29:15.606Z,0.11
2023-02-06T23:31:42.841Z,0.10
2023-02-06T23:34:11.058Z,0.10
2023-02-06T23:36:37.913Z,0.24
2023-02-06T23:39:05.650Z,0.02
2023-02-06T23:41:33.204Z,-0.02
2023-02-06T23:44:06.219Z,-0.01
2023-02-06T23:46:35.392Z,0.03
2023-02-06T23:49:02.459Z,0.22
2023-02-06T23:51:29.505Z,0.27
2023-02-06T23:53:56.285Z,0.28
2023-02-06T23:56:29.466Z,0.17
2023-02-06T23:59:02.693Z,-0.04
